createdAt,value
2022-11-23T00:01:48.372Z,3.50
2022-11-23T00:04:15.171Z,3.50
2022-11-23T00:06:42.034Z,3.50
2022-11-23T00:09:10.204Z,3.40
2022-11-23T00:11:36.921Z,3.40
2022-11-23T00:14:03.607Z,3.30
2022-11-23T00:16:30.557Z,3.30
2022-11-23T00:18:58.706Z,3.30
2022-11-23T00:21:26.195Z,3.30
2022-11-23T00:23:52.946Z,3.20
2022-11-23T00:26:19.900Z,3.20
2022-11-23T00:28:47.231Z,3.10
2022-11-23T00:31:15.166Z,3.10
2022-11-23T00:33:42.768Z,3.10
2022-11-23T00:36:13.642Z,3.10
2022-11-23T00:38:40.818Z,3.10
2022-11-23T00:41:09.269Z,3.20
2022-11-23T00:43:36.150Z,3.20
2022-11-23T00:46:03.783Z,3.30
2022-11-23T00:48:30.416Z,3.40
2022-11-23T00:50:59.420Z,3.40
2022-11-23T00:53:26.093Z,3.40
2022-11-23T00:55:54.636Z,3.40
2022-11-23T00:58:21.672Z,3.50
2022-11-23T01:00:48.503Z,3.50
2022-11-23T01:03:15.840Z,3.50
2022-11-23T01:05:42.548Z,3.50
2022-11-23T01:08:09.522Z,3.60
2022-11-23T01:10:36.264Z,3.70
2022-11-23T01:13:03.032Z,3.70
2022-11-23T01:15:29.836Z,3.70
2022-11-23T01:17:56.653Z,3.80
2022-11-23T01:20:23.355Z,3.80
2022-11-23T01:22:51.302Z,3.80
2022-11-23T01:25:17.966Z,3.80
2022-11-23T01:27:44.712Z,3.90
2022-11-23T01:30:11.696Z,3.90
2022-11-23T01:32:38.398Z,3.90
2022-11-23T01:35:05.196Z,3.90
2022-11-23T01:37:31.865Z,4.00
2022-11-23T01:39:58.539Z,3.90
2022-11-23T01:42:39.189Z,3.90
2022-11-23T01:45:24.770Z,3.90
2022-11-23T01:47:51.438Z,3.80
2022-11-23T01:50:18.102Z,3.80
2022-11-23T01:52:44.815Z,3.80
2022-11-23T01:55:11.507Z,3.80
2022-11-23T01:57:40.496Z,3.80
2022-11-23T02:00:08.276Z,3.80
2022-11-23T02:02:42.565Z,3.90
2022-11-23T02:05:09.908Z,3.80
2022-11-23T02:07:37.110Z,3.80
2022-11-23T02:10:04.266Z,3.80
2022-11-23T02:12:30.987Z,3.90
2022-11-23T02:14:57.654Z,3.90
2022-11-23T02:17:24.323Z,3.90
2022-11-23T02:20:09.630Z,3.90
2022-11-23T02:22:51.648Z,4.00
2022-11-23T02:25:21.236Z,4.00
2022-11-23T02:27:47.895Z,4.10
2022-11-23T02:30:24.235Z,4.10
2022-11-23T02:32:53.503Z,4.10
2022-11-23T02:35:20.190Z,4.10
2022-11-23T02:37:46.888Z,4.10
2022-11-23T02:40:28.506Z,4.10
2022-11-23T02:42:55.239Z,4.00
2022-11-23T02:45:26.563Z,4.00
2022-11-23T02:47:53.230Z,4.00
2022-11-23T02:50:19.907Z,4.00
2022-11-23T02:52:46.549Z,3.90
2022-11-23T02:55:15.517Z,3.90
2022-11-23T02:57:42.164Z,3.90
2022-11-23T03:00:11.110Z,3.90
2022-11-23T03:02:37.900Z,3.80
2022-11-23T03:05:04.714Z,3.70
2022-11-23T03:07:31.515Z,3.70
2022-11-23T03:09:59.437Z,3.60
2022-11-23T03:12:26.201Z,3.60
2022-11-23T03:14:52.981Z,3.50
2022-11-23T03:17:20.857Z,3.50
2022-11-23T03:19:47.553Z,3.50
2022-11-23T03:22:14.295Z,3.50
2022-11-23T03:24:40.970Z,3.50
2022-11-23T03:27:12.432Z,3.50
2022-11-23T03:29:40.696Z,3.50
2022-11-23T03:32:12.660Z,3.60
2022-11-23T03:34:42.471Z,3.60
2022-11-23T03:37:09.240Z,3.70
2022-11-23T03:39:36.908Z,3.70
2022-11-23T03:42:23.638Z,3.70
2022-11-23T03:44:50.815Z,3.70
2022-11-23T03:47:17.589Z,3.70
2022-11-23T03:49:44.336Z,3.70
2022-11-23T03:52:11.019Z,3.70
2022-11-23T03:54:37.815Z,3.80
2022-11-23T03:57:04.772Z,3.80
2022-11-23T03:59:32.880Z,3.80
2022-11-23T04:02:00.026Z,3.90
2022-11-23T04:04:30.851Z,3.90
2022-11-23T04:07:32.492Z,3.90
2022-11-23T04:10:02.550Z,3.90
2022-11-23T04:12:57.593Z,3.90
2022-11-23T04:15:24.362Z,3.90
2022-11-23T04:17:51.134Z,3.90
2022-11-23T04:20:18.373Z,3.90
2022-11-23T04:22:45.105Z,3.80
2022-11-23T04:25:11.964Z,3.80
2022-11-23T04:27:39.796Z,3.80
2022-11-23T04:30:08.316Z,3.80
2022-11-23T04:32:35.030Z,3.70
2022-11-23T04:35:02.591Z,3.70
2022-11-23T04:37:29.380Z,3.70
2022-11-23T04:39:56.080Z,3.70
2022-11-23T04:42:37.124Z,3.70
2022-11-23T04:45:04.046Z,3.70
2022-11-23T04:47:30.791Z,3.80
2022-11-23T04:50:01.088Z,3.80
2022-11-23T04:52:28.311Z,3.80
2022-11-23T04:54:56.184Z,3.80
2022-11-23T04:57:23.788Z,3.80
2022-11-23T04:59:52.964Z,3.80
2022-11-23T05:02:19.722Z,3.80
2022-11-23T05:04:49.575Z,3.90
2022-11-23T05:07:18.129Z,3.90
2022-11-23T05:09:51.184Z,3.90
2022-11-23T05:12:20.795Z,3.90
2022-11-23T05:14:47.825Z,3.90
2022-11-23T05:17:19.889Z,4.00
2022-11-23T05:19:48.028Z,4.00
2022-11-23T05:22:14.757Z,4.00
2022-11-23T05:24:42.787Z,4.10
2022-11-23T05:27:16.518Z,4.10
2022-11-23T05:29:43.338Z,4.10
2022-11-23T05:32:10.856Z,4.10
2022-11-23T05:34:38.547Z,4.10
2022-11-23T05:37:06.069Z,4.00
2022-11-23T05:39:34.050Z,4.00
2022-11-23T05:42:01.401Z,4.00
2022-11-23T05:44:36.241Z,3.90
2022-11-23T05:47:04.500Z,3.90
2022-11-23T05:49:33.782Z,3.90
2022-11-23T05:52:02.795Z,3.90
2022-11-23T05:54:30.968Z,3.90
2022-11-23T05:57:03.175Z,3.90
2022-11-23T05:59:50.097Z,3.90
2022-11-23T06:02:20.995Z,3.90
2022-11-23T06:04:51.314Z,3.90
2022-11-23T06:07:24.300Z,3.90
2022-11-23T06:10:12.703Z,3.90
2022-11-23T06:12:45.612Z,3.90
2022-11-23T06:15:14.633Z,3.80
2022-11-23T06:17:41.374Z,3.80
2022-11-23T06:20:13.603Z,3.80
2022-11-23T06:22:44.111Z,3.80
2022-11-23T06:25:10.934Z,3.90
2022-11-23T06:28:09.318Z,3.90
2022-11-23T06:30:42.182Z,3.90
2022-11-23T06:33:09.161Z,3.90
2022-11-23T06:35:58.680Z,3.90
2022-11-23T06:38:29.840Z,3.90
2022-11-23T06:41:03.495Z,3.90
2022-11-23T06:43:31.061Z,3.90
2022-11-23T06:45:59.259Z,3.90
2022-11-23T06:48:28.912Z,4.00
2022-11-23T06:51:00.859Z,4.00
2022-11-23T06:53:30.186Z,4.00
2022-11-23T06:56:01.924Z,4.10
2022-11-23T06:58:31.075Z,4.10
2022-11-23T07:01:03.898Z,4.10
2022-11-23T07:03:36.263Z,4.20
2022-11-23T07:06:10.033Z,4.10
2022-11-23T07:08:39.884Z,4.10
2022-11-23T07:11:22.648Z,4.10
2022-11-23T07:13:49.574Z,4.10
2022-11-23T07:16:16.315Z,4.10
2022-11-23T07:18:43.045Z,4.10
2022-11-23T07:21:10.251Z,4.20
2022-11-23T07:23:40.713Z,4.20
2022-11-23T07:26:09.123Z,4.40
2022-11-23T07:28:36.057Z,4.40
2022-11-23T07:31:02.956Z,4.40
2022-11-23T07:33:30.281Z,4.50
2022-11-23T07:36:00.552Z,4.50
2022-11-23T07:38:27.208Z,4.50
2022-11-23T07:40:54.348Z,4.60
2022-11-23T07:43:38.154Z,4.60
2022-11-23T07:46:04.845Z,4.70
2022-11-23T07:48:36.177Z,4.70
2022-11-23T07:51:03.365Z,4.70
2022-11-23T07:53:30.202Z,4.70
2022-11-23T07:55:58.574Z,4.80
2022-11-23T07:58:25.560Z,4.80
2022-11-23T08:00:52.519Z,4.80
2022-11-23T08:03:28.485Z,4.90
2022-11-23T08:05:56.933Z,5.00
2022-11-23T08:08:32.251Z,5.20
2022-11-23T08:10:59.003Z,5.40
2022-11-23T08:13:25.867Z,5.50
2022-11-23T08:15:55.760Z,5.60
2022-11-23T08:18:23.983Z,5.70
2022-11-23T08:20:50.640Z,5.70
2022-11-23T08:23:17.347Z,5.80
2022-11-23T08:25:44.131Z,5.80
2022-11-23T08:28:11.047Z,5.90
2022-11-23T08:30:38.081Z,5.90
2022-11-23T08:33:05.919Z,5.90
2022-11-23T08:35:36.606Z,6.00
2022-11-23T08:38:04.018Z,6.10
2022-11-23T08:40:31.060Z,6.30
2022-11-23T08:42:57.853Z,6.50
2022-11-23T08:45:25.009Z,6.60
2022-11-23T08:47:52.914Z,6.70
2022-11-23T08:50:20.242Z,6.80
2022-11-23T08:52:47.555Z,7.00
2022-11-23T08:55:14.479Z,7.00
2022-11-23T08:57:41.157Z,7.10
2022-11-23T09:00:08.185Z,7.10
2022-11-23T09:02:34.912Z,7.10
2022-11-23T09:05:01.666Z,7.20
2022-11-23T09:07:28.821Z,7.30
2022-11-23T09:09:55.611Z,7.40
2022-11-23T09:12:22.282Z,7.60
2022-11-23T09:14:48.982Z,8.90
2022-11-23T09:17:15.776Z,10.80
2022-11-23T09:19:42.477Z,12.70
2022-11-23T09:22:09.154Z,14.00
2022-11-23T09:24:36.178Z,15.10
2022-11-23T09:27:03.283Z,15.40
2022-11-23T09:29:29.989Z,14.50
2022-11-23T09:31:56.711Z,13.30
2022-11-23T09:34:23.455Z,12.40
2022-11-23T09:36:50.177Z,11.50
2022-11-23T09:39:16.902Z,11.00
2022-11-23T09:41:58.392Z,10.60
2022-11-23T09:44:34.097Z,10.40
2022-11-23T09:47:03.883Z,11.20
2022-11-23T09:49:42.964Z,12.20
2022-11-23T09:52:14.652Z,12.50
2022-11-23T09:54:41.708Z,12.50
2022-11-23T09:57:11.621Z,12.30
2022-11-23T09:59:47.130Z,12.00
2022-11-23T10:02:19.605Z,12.40
2022-11-23T10:04:46.354Z,13.60
2022-11-23T10:07:25.381Z,14.30
2022-11-23T10:09:58.255Z,14.50
2022-11-23T10:12:38.613Z,14.30
2022-11-23T10:15:12.128Z,13.70
2022-11-23T10:18:08.072Z,13.00
2022-11-23T10:20:34.770Z,12.40
2022-11-23T10:23:02.383Z,11.80
2022-11-23T10:25:36.080Z,11.30
2022-11-23T10:28:12.800Z,10.90
2022-11-23T10:30:39.748Z,10.40
2022-11-23T10:33:26.560Z,10.00
2022-11-23T10:35:53.238Z,9.60
2022-11-23T10:38:20.678Z,9.40
2022-11-23T10:40:53.233Z,9.20
2022-11-23T10:43:22.752Z,9.10
2022-11-23T10:45:49.580Z,9.00
2022-11-23T10:48:33.654Z,9.00
2022-11-23T10:51:19.664Z,8.90
2022-11-23T10:53:51.165Z,8.80
2022-11-23T10:56:17.850Z,8.80
2022-11-23T10:58:45.324Z,8.80
2022-11-23T11:01:13.596Z,8.80
2022-11-23T11:03:40.838Z,8.80
2022-11-23T11:06:09.568Z,8.80
2022-11-23T11:08:48.736Z,8.80
2022-11-23T11:11:26.344Z,8.90
2022-11-23T11:14:01.831Z,8.90
2022-11-23T11:16:35.750Z,8.90
2022-11-23T11:19:21.178Z,9.10
2022-11-23T11:22:13.731Z,9.20
2022-11-23T11:24:56.001Z,9.30
2022-11-23T11:27:23.840Z,9.40
2022-11-23T11:29:51.775Z,9.50
2022-11-23T11:32:41.825Z,9.50
2022-11-23T11:35:20.337Z,9.50
2022-11-23T11:37:49.194Z,9.40
2022-11-23T11:40:21.477Z,9.40
2022-11-23T11:42:52.014Z,9.50
2022-11-23T11:45:38.993Z,9.50
2022-11-23T11:48:18.795Z,9.50
2022-11-23T11:50:51.506Z,9.60
2022-11-23T11:53:20.371Z,9.50
2022-11-23T11:55:47.094Z,9.50
2022-11-23T11:58:17.596Z,9.50
2022-11-23T12:00:45.863Z,9.60
2022-11-23T12:03:32.888Z,9.60
2022-11-23T12:06:04.195Z,9.70
2022-11-23T12:08:35.800Z,9.80
2022-11-23T12:11:02.558Z,9.90
2022-11-23T12:13:33.663Z,10.00
2022-11-23T12:16:06.515Z,10.10
2022-11-23T12:18:45.197Z,10.20
2022-11-23T12:21:19.441Z,10.40
2022-11-23T12:23:52.268Z,10.50
2022-11-23T12:26:41.992Z,10.60
2022-11-23T12:29:22.128Z,10.70
2022-11-23T12:32:07.736Z,10.80
2022-11-23T12:34:57.478Z,10.80
2022-11-23T12:37:40.261Z,10.80
2022-11-23T12:40:33.213Z,10.70
2022-11-23T12:43:35.253Z,10.50
2022-11-23T12:46:03.462Z,10.40
2022-11-23T12:48:33.029Z,10.40
2022-11-23T12:51:21.364Z,10.30
2022-11-23T12:54:06.974Z,10.30
2022-11-23T12:56:52.404Z,10.30
2022-11-23T12:59:20.028Z,10.30
2022-11-23T13:01:49.734Z,10.30
2022-11-23T13:04:24.961Z,10.30
2022-11-23T13:07:28.530Z,10.40
2022-11-23T13:10:06.136Z,10.40
2022-11-23T13:12:50.906Z,10.50
2022-11-23T13:15:26.859Z,10.50
2022-11-23T13:18:11.224Z,10.60
2022-11-23T13:20:49.486Z,10.60
2022-11-23T13:23:21.590Z,10.60
2022-11-23T13:26:06.870Z,10.60
2022-11-23T13:28:33.569Z,10.60
2022-11-23T13:31:16.185Z,10.60
2022-11-23T13:33:44.973Z,10.60
2022-11-23T13:36:56.497Z,10.60
2022-11-23T13:39:49.102Z,10.70
2022-11-23T13:42:15.758Z,10.70
2022-11-23T13:44:42.614Z,10.60
2022-11-23T13:47:14.762Z,10.60
2022-11-23T13:49:45.819Z,10.40
2022-11-23T13:52:21.688Z,10.20
2022-11-23T13:54:57.286Z,9.90
2022-11-23T13:57:24.255Z,9.60
2022-11-23T13:59:51.038Z,9.30
2022-11-23T14:02:26.454Z,9.10
2022-11-23T14:05:03.188Z,8.90
2022-11-23T14:07:36.871Z,8.80
2022-11-23T14:10:09.831Z,8.70
2022-11-23T14:12:56.906Z,8.60
2022-11-23T14:15:24.963Z,8.50
2022-11-23T14:18:10.635Z,8.40
2022-11-23T14:20:46.561Z,8.30
2022-11-23T14:23:22.183Z,8.20
2022-11-23T14:26:03.747Z,8.10
2022-11-23T14:28:48.849Z,8.00
2022-11-23T14:31:18.614Z,7.90
2022-11-23T14:33:59.106Z,7.80
2022-11-23T14:36:44.645Z,7.70
2022-11-23T14:39:36.432Z,7.70
2022-11-23T14:42:05.410Z,7.60
2022-11-23T14:44:38.362Z,7.50
2022-11-23T14:47:06.780Z,7.40
2022-11-23T14:49:33.787Z,7.30
2022-11-23T14:52:01.098Z,7.20
2022-11-23T14:54:30.983Z,7.10
2022-11-23T14:57:02.726Z,7.00
2022-11-23T14:59:32.164Z,6.90
2022-11-23T15:02:04.314Z,6.90
2022-11-23T15:04:37.504Z,6.70
2022-11-23T15:07:06.577Z,6.70
2022-11-23T15:09:39.426Z,6.60
2022-11-23T15:12:07.618Z,6.50
2022-11-23T15:14:34.988Z,6.50
2022-11-23T15:17:21.595Z,6.40
2022-11-23T15:19:55.320Z,6.30
2022-11-23T15:22:22.171Z,6.20
2022-11-23T15:24:49.007Z,6.10
2022-11-23T15:27:23.860Z,6.00
2022-11-23T15:29:52.377Z,6.00
2022-11-23T15:32:31.907Z,5.90
2022-11-23T15:35:07.807Z,5.80
2022-11-23T15:37:40.939Z,5.80
2022-11-23T15:40:12.288Z,5.70
2022-11-23T15:42:39.066Z,5.70
2022-11-23T15:45:06.056Z,5.50
2022-11-23T15:47:32.872Z,5.40
2022-11-23T15:50:07.760Z,5.40
2022-11-23T15:52:38.302Z,5.30
2022-11-23T15:55:09.624Z,5.20
2022-11-23T15:57:37.566Z,5.20
2022-11-23T16:00:05.189Z,5.10
2022-11-23T16:02:38.375Z,5.00
2022-11-23T16:05:05.697Z,5.00
2022-11-23T16:07:32.427Z,5.00
2022-11-23T16:10:31.898Z,5.00
2022-11-23T16:13:03.760Z,5.00
2022-11-23T16:15:32.836Z,5.00
2022-11-23T16:18:03.730Z,5.00
2022-11-23T16:20:30.797Z,5.00
2022-11-23T16:22:59.367Z,5.00
2022-11-23T16:25:36.062Z,4.90
2022-11-23T16:28:04.809Z,4.90
2022-11-23T16:30:36.597Z,4.90
2022-11-23T16:33:03.689Z,4.80
2022-11-23T16:35:30.506Z,4.80
2022-11-23T16:37:57.246Z,4.80
2022-11-23T16:40:23.966Z,4.80
2022-11-23T16:42:51.413Z,4.80
2022-11-23T16:45:18.090Z,4.80
2022-11-23T16:47:52.096Z,4.80
2022-11-23T16:50:19.271Z,4.70
2022-11-23T16:52:45.948Z,4.70
2022-11-23T16:55:12.626Z,4.60
2022-11-23T16:57:39.629Z,4.50
2022-11-23T17:00:08.275Z,4.40
2022-11-23T17:02:35.081Z,4.40
2022-11-23T17:05:01.879Z,4.40
2022-11-23T17:07:28.677Z,4.40
2022-11-23T17:09:56.403Z,4.40
2022-11-23T17:12:23.099Z,4.40
2022-11-23T17:14:50.213Z,4.40
2022-11-23T17:17:21.280Z,4.40
2022-11-23T17:19:51.120Z,4.40
2022-11-23T17:22:18.783Z,4.40
2022-11-23T17:24:46.053Z,4.50
2022-11-23T17:27:21.828Z,4.40
2022-11-23T17:29:51.169Z,4.40
2022-11-23T17:32:17.896Z,4.30
2022-11-23T17:34:44.529Z,4.30
2022-11-23T17:37:19.873Z,4.20
2022-11-23T17:39:47.463Z,4.10
2022-11-23T17:42:14.254Z,4.00
2022-11-23T17:44:41.098Z,4.00
2022-11-23T17:47:15.660Z,3.90
2022-11-23T17:49:42.481Z,3.90
2022-11-23T17:52:11.197Z,3.90
2022-11-23T17:54:37.870Z,3.90
2022-11-23T17:57:04.541Z,3.90
2022-11-23T17:59:31.452Z,3.90
2022-11-23T18:01:58.816Z,3.80
2022-11-23T18:04:25.626Z,3.80
2022-11-23T18:06:52.285Z,3.80
2022-11-23T18:09:18.954Z,3.90
2022-11-23T18:11:45.708Z,3.90
2022-11-23T18:14:12.355Z,3.90
2022-11-23T18:16:39.413Z,3.90
2022-11-23T18:19:06.052Z,3.90
2022-11-23T18:21:32.709Z,3.80
2022-11-23T18:24:04.339Z,3.80
2022-11-23T18:26:31.784Z,3.70
2022-11-23T18:28:58.500Z,3.70
2022-11-23T18:31:25.557Z,3.70
2022-11-23T18:33:52.374Z,3.60
2022-11-23T18:36:19.747Z,3.60
2022-11-23T18:38:46.596Z,3.60
2022-11-23T18:41:15.980Z,3.60
2022-11-23T18:43:43.057Z,3.60
2022-11-23T18:46:10.488Z,3.60
2022-11-23T18:48:37.830Z,3.60
2022-11-23T18:51:05.269Z,3.60
2022-11-23T18:53:32.425Z,3.60
2022-11-23T18:56:02.780Z,3.60
2022-11-23T18:58:33.356Z,3.60
2022-11-23T19:01:10.727Z,3.70
2022-11-23T19:03:39.713Z,3.70
2022-11-23T19:06:06.645Z,3.60
2022-11-23T19:08:38.223Z,3.70
2022-11-23T19:11:09.036Z,3.60
2022-11-23T19:13:37.030Z,3.60
2022-11-23T19:16:14.417Z,3.60
2022-11-23T19:18:41.428Z,3.60
2022-11-23T19:21:12.244Z,3.60
2022-11-23T19:23:38.900Z,3.60
2022-11-23T19:26:05.725Z,3.50
2022-11-23T19:28:32.988Z,3.60
2022-11-23T19:31:08.505Z,3.60
2022-11-23T19:33:35.230Z,3.60
2022-11-23T19:36:09.711Z,3.60
2022-11-23T19:38:36.453Z,3.60
2022-11-23T19:41:03.192Z,3.60
2022-11-23T19:43:29.917Z,3.60
2022-11-23T19:45:57.443Z,3.60
2022-11-23T19:48:24.335Z,3.60
2022-11-23T19:50:59.957Z,3.60
2022-11-23T19:53:30.711Z,3.50
2022-11-23T19:56:12.031Z,3.50
2022-11-23T19:58:38.866Z,3.40
2022-11-23T20:01:06.752Z,3.40
2022-11-23T20:03:37.644Z,3.30
2022-11-23T20:06:06.791Z,3.20
2022-11-23T20:08:33.470Z,3.20
2022-11-23T20:11:05.398Z,3.10
2022-11-23T20:13:32.065Z,3.00
2022-11-23T20:16:02.264Z,3.00
2022-11-23T20:18:29.933Z,3.00
2022-11-23T20:20:56.810Z,3.00
2022-11-23T20:23:23.521Z,3.00
2022-11-23T20:25:50.298Z,3.00
2022-11-23T20:28:17.130Z,3.00
2022-11-23T20:30:43.990Z,3.00
2022-11-23T20:33:11.066Z,3.00
2022-11-23T20:35:38.371Z,3.00
2022-11-23T20:38:05.252Z,2.90
2022-11-23T20:40:32.288Z,2.90
2022-11-23T20:42:59.485Z,2.90
2022-11-23T20:45:26.251Z,2.80
2022-11-23T20:47:54.625Z,2.80
2022-11-23T20:50:26.850Z,2.70
2022-11-23T20:52:54.088Z,2.60
2022-11-23T20:55:24.626Z,2.60
2022-11-23T20:57:52.422Z,2.50
2022-11-23T21:00:20.637Z,2.50
2022-11-23T21:02:54.449Z,2.50
2022-11-23T21:05:21.714Z,2.50
2022-11-23T21:07:48.635Z,2.50
2022-11-23T21:10:34.249Z,2.60
2022-11-23T21:13:20.238Z,2.60
2022-11-23T21:15:47.285Z,2.60
2022-11-23T21:18:14.504Z,2.60
2022-11-23T21:20:43.194Z,2.60
2022-11-23T21:23:10.012Z,2.70
2022-11-23T21:25:36.759Z,2.70
2022-11-23T21:28:03.505Z,2.70
2022-11-23T21:30:30.815Z,2.70
2022-11-23T21:32:57.609Z,2.70
2022-11-23T21:35:24.266Z,2.70
2022-11-23T21:37:51.194Z,2.80
2022-11-23T21:40:18.073Z,2.80
2022-11-23T21:42:44.820Z,2.80
2022-11-23T21:45:11.630Z,2.80
2022-11-23T21:47:38.290Z,2.80
2022-11-23T21:50:05.095Z,2.80
2022-11-23T21:52:31.825Z,2.80
2022-11-23T21:54:58.552Z,2.70
2022-11-23T21:57:25.176Z,2.70
2022-11-23T21:59:51.845Z,2.70
2022-11-23T22:02:19.005Z,2.70
2022-11-23T22:04:46.310Z,2.70
2022-11-23T22:07:13.299Z,2.70
2022-11-23T22:09:40.015Z,2.70
2022-11-23T22:12:06.752Z,2.70
2022-11-23T22:14:33.600Z,2.60
2022-11-23T22:17:01.080Z,2.60
2022-11-23T22:19:27.855Z,2.60
2022-11-23T22:21:54.523Z,2.50
2022-11-23T22:24:22.581Z,2.40
2022-11-23T22:26:49.388Z,2.40
2022-11-23T22:29:16.172Z,2.40
2022-11-23T22:31:43.684Z,2.30
2022-11-23T22:34:11.462Z,2.30
2022-11-23T22:36:38.372Z,2.30
2022-11-23T22:39:06.249Z,2.20
2022-11-23T22:41:39.148Z,2.20
2022-11-23T22:44:06.600Z,2.20
2022-11-23T22:46:33.526Z,2.20
2022-11-23T22:49:00.327Z,2.20
2022-11-23T22:51:28.062Z,2.10
2022-11-23T22:53:55.349Z,2.10
2022-11-23T22:56:22.240Z,2.10
2022-11-23T22:58:49.529Z,2.10
2022-11-23T23:01:17.436Z,2.10
2022-11-23T23:03:45.023Z,2.10
2022-11-23T23:06:19.009Z,2.10
2022-11-23T23:08:46.736Z,2.10
2022-11-23T23:11:14.221Z,2.10
2022-11-23T23:13:41.360Z,2.10
2022-11-23T23:16:10.494Z,2.00
2022-11-23T23:18:37.342Z,2.10
2022-11-23T23:21:10.855Z,2.10
2022-11-23T23:23:38.298Z,2.00
2022-11-23T23:26:05.808Z,2.10
2022-11-23T23:28:32.866Z,2.10
2022-11-23T23:31:00.542Z,2.10
2022-11-23T23:33:29.500Z,2.10
2022-11-23T23:35:56.663Z,2.20
2022-11-23T23:38:29.872Z,2.20
2022-11-23T23:40:56.582Z,2.20
2022-11-23T23:43:23.261Z,2.30
2022-11-23T23:45:51.503Z,2.30
2022-11-23T23:48:18.223Z,2.30
2022-11-23T23:50:44.903Z,2.30
2022-11-23T23:53:11.560Z,2.30
2022-11-23T23:55:38.323Z,2.30
2022-11-23T23:58:04.994Z,2.30
